Accueil
METAR-TAF:

METAR-TAF

Aéroports :

Aéroport international de Washington-Dulles

Washington, Virginie, États-Unis

latitude: 38-56-05N, longitude: 077-26-51W, altitude: 95 m

Observation

Le bulletin a été fait il y a 11 minutes, à 02:52 UTC
Vent 7 kt de nord/nord-ouest
Température 9°C
Humidité 40%
Pression 1022 hPa
Visibilité: 16.1 km
Ciel couvert à une hauteur de 14000 ft

METAR: KIAD 220252Z 34007KT 10SM OVC140 09/M04 A3019 RMK AO2 SLP223 T00941039 53020

Heure: 22:03 (03:03 UTC)

Prévision

Le bulletin a été fait il y a 3 heures et 26 minutes, à 23:37 UTC
Prévision valable du 22 à 00 UTC au 23 à 06 UTC
Vent 6 kt de nord-ouest
Visibilité: 10 km
Nuages fragmentés à une hauteur de 15000 ft
A partir de 23 à 0200 UTC
Vent kt de nord
Visibilité: 10 km
Nuages fragmentés à une hauteur de 15000 ft
Ciel couvert à une hauteur de 25000 ft

TAF: KIAD 212337Z 2200/2306 32006KT P6SM BKN150 FM230200 00000KT P6SM BKN150 OVC250

Observations et prévisions météorologiques de plus de 4000 aéroports (messages METAR et TAF).

Les stations disponibles sont représentées par des disques jaunes et rouges sur la carte.

Passer la souris dessus pour voir le nom de la station.

Cliquer dessus pour voir les observations et prévisions météorologiques.

Pour changer de carte: cliquez sur les boutons verts avec une croix noire pour zoomer, sur le bouton vert avec un tiret pour effectuer un zoom arrière, ou sur les flèches vertes pour les cartes adjacentes.


METAR-TAF: